Weather at Cobb County-Mc Collum Field

Public forecast

Using degrees Fahrenheit for public forecast. Weather courtesy of forecast.io.

Current aviation weather report (METAR) for Cobb County-Mc Collum Field

Retrieved 2020/11/23 14:50 UTC (1 hour ago):

KRYY 231450Z 33006KT 10SM CLR 08/02 A3027 RMK AO2 SLP969 6//// T00830022 51013 PNO

Aviation forecast (TAF) for Cobb County-Mc Collum Field

Retrieved 2020/11/23 12:27 UTC (3 hours ago):

TAF KRYY 231124Z 2312/2412 33010G15KT P6SM SCT017 FM231400 34010KT P6SM SKC FM240000 VRB03KT P6SM SKC